sensor_id;sensor_type;location;lat;lon;timestamp;P1;durP1;ratioP1;P2;durP2;ratioP2
3349;SDS011;1688;51.000;13.684;2023-04-06T00:00:48;2.90;;;1.93;;
3349;SDS011;1688;51.000;13.684;2023-04-06T00:03:21;0.90;;;0.73;;
3349;SDS011;1688;51.000;13.684;2023-04-06T00:05:54;0.80;;;0.53;;
3349;SDS011;1688;51.000;13.684;2023-04-06T00:08:28;2.30;;;1.80;;
3349;SDS011;1688;51.000;13.684;2023-04-06T00:11:01;1.13;;;1.03;;
3349;SDS011;1688;51.000;13.684;2023-04-06T00:13:34;1.23;;;1.03;;
3349;SDS011;1688;51.000;13.684;2023-04-06T00:16:07;1.23;;;1.17;;
3349;SDS011;1688;51.000;13.684;2023-04-06T00:18:41;1.53;;;1.43;;
3349;SDS011;1688;51.000;13.684;2023-04-06T00:21:14;8.93;;;2.10;;
3349;SDS011;1688;51.000;13.684;2023-04-06T00:23:47;1.33;;;0.70;;
3349;SDS011;1688;51.000;13.684;2023-04-06T00:26:20;2.07;;;1.23;;
3349;SDS011;1688;51.000;13.684;2023-04-06T00:28:54;0.90;;;0.90;;
3349;SDS011;1688;51.000;13.684;2023-04-06T00:31:27;1.10;;;0.90;;
3349;SDS011;1688;51.000;13.684;2023-04-06T00:34:00;2.00;;;1.90;;
3349;SDS011;1688;51.000;13.684;2023-04-06T00:36:34;1.60;;;1.07;;
3349;SDS011;1688;51.000;13.684;2023-04-06T00:39:07;2.43;;;1.00;;
3349;SDS011;1688;51.000;13.684;2023-04-06T00:41:42;1.10;;;1.00;;
3349;SDS011;1688;51.000;13.684;2023-04-06T00:44:19;2.50;;;0.87;;
3349;SDS011;1688;51.000;13.684;2023-04-06T00:46:52;1.53;;;1.43;;
3349;SDS011;1688;51.000;13.684;2023-04-06T00:49:26;0.80;;;0.60;;
3349;SDS011;1688;51.000;13.684;2023-04-06T00:51:59;1.80;;;1.67;;
3349;SDS011;1688;51.000;13.684;2023-04-06T00:54:33;1.47;;;1.37;;
3349;SDS011;1688;51.000;13.684;2023-04-06T00:57:06;0.90;;;0.63;;
3349;SDS011;1688;51.000;13.684;2023-04-06T00:59:40;1.53;;;1.43;;
3349;SDS011;1688;51.000;13.684;2023-04-06T01:02:13;2.40;;;1.40;;
3349;SDS011;1688;51.000;13.684;2023-04-06T01:04:47;1.83;;;1.30;;
3349;SDS011;1688;51.000;13.684;2023-04-06T01:07:20;1.40;;;1.30;;
3349;SDS011;1688;51.000;13.684;2023-04-06T01:09:53;1.00;;;0.90;;
3349;SDS011;1688;51.000;13.684;2023-04-06T01:12:27;1.03;;;0.93;;
3349;SDS011;1688;51.000;13.684;2023-04-06T01:15:00;1.27;;;1.03;;
3349;SDS011;1688;51.000;13.684;2023-04-06T01:17:33;1.37;;;1.07;;
3349;SDS011;1688;51.000;13.684;2023-04-06T01:20:07;3.53;;;2.70;;
3349;SDS011;1688;51.000;13.684;2023-04-06T01:22:40;3.63;;;0.90;;
3349;SDS011;1688;51.000;13.684;2023-04-06T01:25:14;2.40;;;1.37;;
3349;SDS011;1688;51.000;13.684;2023-04-06T01:27:47;2.53;;;1.53;;
3349;SDS011;1688;51.000;13.684;2023-04-06T01:30:20;2.40;;;1.13;;
3349;SDS011;1688;51.000;13.684;2023-04-06T01:32:53;1.30;;;1.20;;
3349;SDS011;1688;51.000;13.684;2023-04-06T01:35:27;2.20;;;1.70;;
3349;SDS011;1688;51.000;13.684;2023-04-06T01:38:01;0.90;;;0.60;;
3349;SDS011;1688;51.000;13.684;2023-04-06T01:40:34;2.70;;;0.80;;
3349;SDS011;1688;51.000;13.684;2023-04-06T01:43:07;1.87;;;1.70;;
3349;SDS011;1688;51.000;13.684;2023-04-06T01:45:41;1.93;;;1.83;;
3349;SDS011;1688;51.000;13.684;2023-04-06T01:48:14;1.40;;;1.30;;
3349;SDS011;1688;51.000;13.684;2023-04-06T01:50:47;1.63;;;1.20;;
3349;SDS011;1688;51.000;13.684;2023-04-06T01:53:20;2.17;;;1.97;;
3349;SDS011;1688;51.000;13.684;2023-04-06T01:55:54;1.03;;;0.93;;
3349;SDS011;1688;51.000;13.684;2023-04-06T01:58:27;0.73;;;0.50;;
3349;SDS011;1688;51.000;13.684;2023-04-06T02:01:00;0.80;;;0.70;;
3349;SDS011;1688;51.000;13.684;2023-04-06T02:03:34;0.80;;;0.60;;
3349;SDS011;1688;51.000;13.684;2023-04-06T02:06:07;2.00;;;1.67;;
3349;SDS011;1688;51.000;13.684;2023-04-06T02:08:40;1.13;;;1.03;;
3349;SDS011;1688;51.000;13.684;2023-04-06T02:11:14;2.13;;;1.40;;
3349;SDS011;1688;51.000;13.684;2023-04-06T02:13:47;1.23;;;1.00;;
3349;SDS011;1688;51.000;13.684;2023-04-06T02:16:20;6.67;;;3.30;;
3349;SDS011;1688;51.000;13.684;2023-04-06T02:18:54;2.30;;;1.67;;
3349;SDS011;1688;51.000;13.684;2023-04-06T02:21:27;0.70;;;0.50;;
3349;SDS011;1688;51.000;13.684;2023-04-06T02:24:00;1.13;;;0.87;;
3349;SDS011;1688;51.000;13.684;2023-04-06T02:26:33;3.27;;;1.27;;
3349;SDS011;1688;51.000;13.684;2023-04-06T02:29:07;1.07;;;1.00;;
3349;SDS011;1688;51.000;13.684;2023-04-06T02:31:40;1.63;;;1.27;;
3349;SDS011;1688;51.000;13.684;2023-04-06T02:34:14;2.17;;;1.37;;
3349;SDS011;1688;51.000;13.684;2023-04-06T02:36:49;1.93;;;1.83;;
3349;SDS011;1688;51.000;13.684;2023-04-06T02:39:23;1.10;;;0.90;;
3349;SDS011;1688;51.000;13.684;2023-04-06T02:41:56;1.33;;;1.23;;
3349;SDS011;1688;51.000;13.684;2023-04-06T02:44:29;1.63;;;0.67;;
3349;SDS011;1688;51.000;13.684;2023-04-06T02:47:02;1.37;;;1.27;;
3349;SDS011;1688;51.000;13.684;2023-04-06T02:49:36;3.63;;;2.03;;
3349;SDS011;1688;51.000;13.684;2023-04-06T02:52:09;2.80;;;1.40;;
3349;SDS011;1688;51.000;13.684;2023-04-06T02:54:42;1.33;;;1.27;;
3349;SDS011;1688;51.000;13.684;2023-04-06T02:57:16;1.20;;;1.10;;
3349;SDS011;1688;51.000;13.684;2023-04-06T02:59:49;1.53;;;1.43;;
3349;SDS011;1688;51.000;13.684;2023-04-06T03:02:22;1.03;;;0.90;;
3349;SDS011;1688;51.000;13.684;2023-04-06T03:04:56;2.60;;;1.87;;
3349;SDS011;1688;51.000;13.684;2023-04-06T03:07:29;0.90;;;0.90;;
3349;SDS011;1688;51.000;13.684;2023-04-06T03:10:02;2.70;;;1.80;;
3349;SDS011;1688;51.000;13.684;2023-04-06T03:12:36;4.00;;;2.63;;
3349;SDS011;1688;51.000;13.684;2023-04-06T03:15:09;1.23;;;1.07;;
3349;SDS011;1688;51.000;13.684;2023-04-06T03:17:43;0.83;;;0.83;;
3349;SDS011;1688;51.000;13.684;2023-04-06T03:20:16;1.10;;;1.00;;
3349;SDS011;1688;51.000;13.684;2023-04-06T03:22:50;1.53;;;0.80;;
3349;SDS011;1688;51.000;13.684;2023-04-06T03:25:23;0.83;;;0.70;;
3349;SDS011;1688;51.000;13.684;2023-04-06T03:27:56;1.20;;;1.10;;
3349;SDS011;1688;51.000;13.684;2023-04-06T03:30:29;1.57;;;0.90;;
3349;SDS011;1688;51.000;13.684;2023-04-06T03:33:03;0.90;;;0.60;;
3349;SDS011;1688;51.000;13.684;2023-04-06T03:35:36;1.90;;;1.80;;
3349;SDS011;1688;51.000;13.684;2023-04-06T03:38:10;0.70;;;0.53;;
3349;SDS011;1688;51.000;13.684;2023-04-06T03:40:43;1.23;;;0.97;;
3349;SDS011;1688;51.000;13.684;2023-04-06T03:43:16;5.17;;;2.43;;
3349;SDS011;1688;51.000;13.684;2023-04-06T03:45:49;2.03;;;1.57;;
3349;SDS011;1688;51.000;13.684;2023-04-06T03:48:23;1.10;;;1.10;;
3349;SDS011;1688;51.000;13.684;2023-04-06T03:50:56;1.47;;;1.37;;
3349;SDS011;1688;51.000;13.684;2023-04-06T03:53:29;1.13;;;1.03;;
3349;SDS011;1688;51.000;13.684;2023-04-06T03:56:03;1.00;;;0.80;;
3349;SDS011;1688;51.000;13.684;2023-04-06T03:58:36;2.27;;;2.10;;
3349;SDS011;1688;51.000;13.684;2023-04-06T04:01:09;0.90;;;0.87;;
3349;SDS011;1688;51.000;13.684;2023-04-06T04:03:43;7.60;;;1.77;;
3349;SDS011;1688;51.000;13.684;2023-04-06T04:06:16;2.30;;;2.10;;
3349;SDS011;1688;51.000;13.684;2023-04-06T04:08:49;1.20;;;1.10;;
3349;SDS011;1688;51.000;13.684;2023-04-06T04:11:23;2.50;;;1.33;;
3349;SDS011;1688;51.000;13.684;2023-04-06T04:13:56;1.07;;;0.97;;
3349;SDS011;1688;51.000;13.684;2023-04-06T04:16:29;1.97;;;1.83;;
3349;SDS011;1688;51.000;13.684;2023-04-06T04:19:03;2.77;;;1.80;;
3349;SDS011;1688;51.000;13.684;2023-04-06T04:21:42;1.80;;;1.03;;
3349;SDS011;1688;51.000;13.684;2023-04-06T04:24:16;10.63;;;1.60;;
3349;SDS011;1688;51.000;13.684;2023-04-06T04:26:49;5.40;;;1.33;;
3349;SDS011;1688;51.000;13.684;2023-04-06T04:29:23;1.00;;;0.90;;
3349;SDS011;1688;51.000;13.684;2023-04-06T04:31:56;1.17;;;0.70;;
3349;SDS011;1688;51.000;13.684;2023-04-06T04:34:29;5.33;;;0.97;;
3349;SDS011;1688;51.000;13.684;2023-04-06T04:37:03;6.77;;;3.50;;
3349;SDS011;1688;51.000;13.684;2023-04-06T04:39:36;1.17;;;1.07;;
3349;SDS011;1688;51.000;13.684;2023-04-06T04:42:10;1.50;;;1.10;;
3349;SDS011;1688;51.000;13.684;2023-04-06T04:44:43;1.57;;;1.47;;
3349;SDS011;1688;51.000;13.684;2023-04-06T04:47:16;1.43;;;1.33;;
3349;SDS011;1688;51.000;13.684;2023-04-06T04:49:50;1.67;;;1.57;;
3349;SDS011;1688;51.000;13.684;2023-04-06T04:52:23;1.40;;;1.30;;
3349;SDS011;1688;51.000;13.684;2023-04-06T04:54:56;2.70;;;2.13;;
3349;SDS011;1688;51.000;13.684;2023-04-06T04:57:29;2.33;;;2.17;;
3349;SDS011;1688;51.000;13.684;2023-04-06T05:00:03;1.70;;;1.60;;
3349;SDS011;1688;51.000;13.684;2023-04-06T05:02:36;9.70;;;1.73;;
3349;SDS011;1688;51.000;13.684;2023-04-06T05:05:10;2.83;;;1.43;;
3349;SDS011;1688;51.000;13.684;2023-04-06T05:07:43;2.00;;;1.90;;
3349;SDS011;1688;51.000;13.684;2023-04-06T05:10:16;1.83;;;1.60;;
3349;SDS011;1688;51.000;13.684;2023-04-06T05:12:49;1.10;;;0.90;;
3349;SDS011;1688;51.000;13.684;2023-04-06T05:15:23;1.93;;;1.83;;
3349;SDS011;1688;51.000;13.684;2023-04-06T05:17:56;2.23;;;2.03;;
3349;SDS011;1688;51.000;13.684;2023-04-06T05:20:29;2.50;;;1.83;;
3349;SDS011;1688;51.000;13.684;2023-04-06T05:23:03;2.60;;;1.57;;
3349;SDS011;1688;51.000;13.684;2023-04-06T05:25:36;2.40;;;1.63;;
3349;SDS011;1688;51.000;13.684;2023-04-06T05:28:10;0.70;;;0.50;;
3349;SDS011;1688;51.000;13.684;2023-04-06T05:30:46;1.27;;;1.17;;
3349;SDS011;1688;51.000;13.684;2023-04-06T05:33:19;1.93;;;1.53;;
3349;SDS011;1688;51.000;13.684;2023-04-06T05:35:52;1.53;;;1.43;;
3349;SDS011;1688;51.000;13.684;2023-04-06T05:38:26;2.43;;;2.23;;
3349;SDS011;1688;51.000;13.684;2023-04-06T05:40:59;2.30;;;1.67;;
3349;SDS011;1688;51.000;13.684;2023-04-06T05:43:33;2.57;;;2.20;;
3349;SDS011;1688;51.000;13.684;2023-04-06T05:46:07;2.20;;;2.10;;
3349;SDS011;1688;51.000;13.684;2023-04-06T05:48:40;2.20;;;1.90;;
3349;SDS011;1688;51.000;13.684;2023-04-06T05:51:13;2.40;;;2.10;;
3349;SDS011;1688;51.000;13.684;2023-04-06T05:53:46;4.17;;;2.50;;
3349;SDS011;1688;51.000;13.684;2023-04-06T05:56:21;2.40;;;1.50;;
3349;SDS011;1688;51.000;13.684;2023-04-06T05:58:55;1.50;;;0.97;;
3349;SDS011;1688;51.000;13.684;2023-04-06T06:01:29;1.83;;;1.70;;
3349;SDS011;1688;51.000;13.684;2023-04-06T06:04:02;6.10;;;2.77;;
3349;SDS011;1688;51.000;13.684;2023-04-06T06:06:35;2.27;;;2.07;;
3349;SDS011;1688;51.000;13.684;2023-04-06T06:09:09;4.83;;;2.20;;
3349;SDS011;1688;51.000;13.684;2023-04-06T06:11:42;2.03;;;1.93;;
3349;SDS011;1688;51.000;13.684;2023-04-06T06:14:15;1.60;;;1.50;;
3349;SDS011;1688;51.000;13.684;2023-04-06T06:16:48;1.97;;;1.63;;
3349;SDS011;1688;51.000;13.684;2023-04-06T06:19:22;2.20;;;2.00;;
3349;SDS011;1688;51.000;13.684;2023-04-06T06:21:55;5.17;;;2.83;;
3349;SDS011;1688;51.000;13.684;2023-04-06T06:24:28;3.57;;;2.70;;
3349;SDS011;1688;51.000;13.684;2023-04-06T06:27:03;2.07;;;1.93;;
3349;SDS011;1688;51.000;13.684;2023-04-06T06:29:36;5.13;;;4.73;;
3349;SDS011;1688;51.000;13.684;2023-04-06T06:32:09;3.40;;;2.37;;
3349;SDS011;1688;51.000;13.684;2023-04-06T06:34:43;5.13;;;2.63;;
3349;SDS011;1688;51.000;13.684;2023-04-06T06:37:16;3.27;;;2.97;;
3349;SDS011;1688;51.000;13.684;2023-04-06T06:39:49;3.00;;;2.80;;
3349;SDS011;1688;51.000;13.684;2023-04-06T06:42:23;3.87;;;2.93;;
3349;SDS011;1688;51.000;13.684;2023-04-06T06:44:56;6.27;;;5.13;;
3349;SDS011;1688;51.000;13.684;2023-04-06T06:47:29;3.73;;;3.00;;
3349;SDS011;1688;51.000;13.684;2023-04-06T06:50:03;3.00;;;2.70;;
3349;SDS011;1688;51.000;13.684;2023-04-06T06:52:36;2.90;;;1.83;;
3349;SDS011;1688;51.000;13.684;2023-04-06T06:55:09;5.80;;;3.03;;
3349;SDS011;1688;51.000;13.684;2023-04-06T06:57:43;3.90;;;2.03;;
3349;SDS011;1688;51.000;13.684;2023-04-06T07:00:18;3.70;;;3.30;;
3349;SDS011;1688;51.000;13.684;2023-04-06T07:02:53;2.00;;;1.40;;
3349;SDS011;1688;51.000;13.684;2023-04-06T07:05:27;2.93;;;2.70;;
3349;SDS011;1688;51.000;13.684;2023-04-06T07:08:00;3.43;;;3.13;;
3349;SDS011;1688;51.000;13.684;2023-04-06T07:10:33;4.33;;;2.20;;
3349;SDS011;1688;51.000;13.684;2023-04-06T07:13:07;4.13;;;2.70;;
3349;SDS011;1688;51.000;13.684;2023-04-06T07:15:40;3.23;;;2.80;;
3349;SDS011;1688;51.000;13.684;2023-04-06T07:18:13;4.77;;;3.40;;
3349;SDS011;1688;51.000;13.684;2023-04-06T07:20:47;8.60;;;5.20;;
3349;SDS011;1688;51.000;13.684;2023-04-06T07:23:20;6.57;;;3.80;;
3349;SDS011;1688;51.000;13.684;2023-04-06T07:25:53;6.00;;;3.80;;
3349;SDS011;1688;51.000;13.684;2023-04-06T07:28:27;5.10;;;3.00;;
3349;SDS011;1688;51.000;13.684;2023-04-06T07:31:00;5.60;;;3.67;;
3349;SDS011;1688;51.000;13.684;2023-04-06T07:33:33;6.83;;;3.43;;
3349;SDS011;1688;51.000;13.684;2023-04-06T07:36:07;4.13;;;3.10;;
3349;SDS011;1688;51.000;13.684;2023-04-06T07:38:40;11.33;;;4.53;;
3349;SDS011;1688;51.000;13.684;2023-04-06T07:41:13;4.13;;;3.23;;
3349;SDS011;1688;51.000;13.684;2023-04-06T07:43:47;3.60;;;3.30;;
3349;SDS011;1688;51.000;13.684;2023-04-06T07:46:20;5.70;;;3.77;;
3349;SDS011;1688;51.000;13.684;2023-04-06T07:48:53;4.93;;;4.10;;
3349;SDS011;1688;51.000;13.684;2023-04-06T07:51:26;3.33;;;2.83;;
3349;SDS011;1688;51.000;13.684;2023-04-06T07:54:00;4.07;;;3.20;;
3349;SDS011;1688;51.000;13.684;2023-04-06T07:56:33;4.83;;;2.57;;
3349;SDS011;1688;51.000;13.684;2023-04-06T07:59:06;2.50;;;2.30;;
3349;SDS011;1688;51.000;13.684;2023-04-06T08:01:40;5.00;;;2.13;;
3349;SDS011;1688;51.000;13.684;2023-04-06T08:04:13;2.83;;;2.63;;
3349;SDS011;1688;51.000;13.684;2023-04-06T08:06:46;3.90;;;3.50;;
3349;SDS011;1688;51.000;13.684;2023-04-06T08:09:20;4.80;;;2.43;;
3349;SDS011;1688;51.000;13.684;2023-04-06T08:11:53;8.40;;;4.40;;
3349;SDS011;1688;51.000;13.684;2023-04-06T08:14:27;5.47;;;3.27;;
3349;SDS011;1688;51.000;13.684;2023-04-06T08:17:00;5.33;;;4.57;;
3349;SDS011;1688;51.000;13.684;2023-04-06T08:19:34;5.80;;;3.67;;
3349;SDS011;1688;51.000;13.684;2023-04-06T08:22:07;3.27;;;2.53;;
3349;SDS011;1688;51.000;13.684;2023-04-06T08:24:41;2.03;;;1.83;;
3349;SDS011;1688;51.000;13.684;2023-04-06T08:27:14;3.07;;;2.73;;
3349;SDS011;1688;51.000;13.684;2023-04-06T08:29:48;12.20;;;3.80;;
3349;SDS011;1688;51.000;13.684;2023-04-06T08:32:23;1.97;;;1.83;;
3349;SDS011;1688;51.000;13.684;2023-04-06T08:34:56;6.17;;;2.70;;
3349;SDS011;1688;51.000;13.684;2023-04-06T08:37:30;3.87;;;3.30;;
3349;SDS011;1688;51.000;13.684;2023-04-06T08:40:04;4.93;;;4.03;;
3349;SDS011;1688;51.000;13.684;2023-04-06T08:42:39;5.80;;;3.60;;
3349;SDS011;1688;51.000;13.684;2023-04-06T08:45:16;10.33;;;4.40;;
3349;SDS011;1688;51.000;13.684;2023-04-06T08:47:50;3.10;;;2.80;;
3349;SDS011;1688;51.000;13.684;2023-04-06T08:50:24;2.30;;;2.07;;
3349;SDS011;1688;51.000;13.684;2023-04-06T08:52:58;5.53;;;3.60;;
3349;SDS011;1688;51.000;13.684;2023-04-06T08:55:32;4.30;;;3.17;;
3349;SDS011;1688;51.000;13.684;2023-04-06T08:58:06;3.33;;;2.93;;
3349;SDS011;1688;51.000;13.684;2023-04-06T09:00:40;11.43;;;2.83;;
3349;SDS011;1688;51.000;13.684;2023-04-06T09:03:14;6.93;;;4.87;;
3349;SDS011;1688;51.000;13.684;2023-04-06T09:05:48;3.60;;;2.27;;
3349;SDS011;1688;51.000;13.684;2023-04-06T09:08:21;2.43;;;2.23;;
3349;SDS011;1688;51.000;13.684;2023-04-06T09:10:55;4.70;;;2.20;;
3349;SDS011;1688;51.000;13.684;2023-04-06T09:13:28;2.73;;;2.53;;
3349;SDS011;1688;51.000;13.684;2023-04-06T09:16:02;3.40;;;3.10;;
3349;SDS011;1688;51.000;13.684;2023-04-06T09:18:36;4.50;;;2.80;;
3349;SDS011;1688;51.000;13.684;2023-04-06T09:21:09;5.17;;;4.00;;
3349;SDS011;1688;51.000;13.684;2023-04-06T09:23:43;2.23;;;2.03;;
3349;SDS011;1688;51.000;13.684;2023-04-06T09:26:16;5.67;;;3.10;;
3349;SDS011;1688;51.000;13.684;2023-04-06T09:28:51;4.30;;;2.67;;
3349;SDS011;1688;51.000;13.684;2023-04-06T09:31:26;3.13;;;2.47;;
3349;SDS011;1688;51.000;13.684;2023-04-06T09:33:59;3.23;;;2.50;;
3349;SDS011;1688;51.000;13.684;2023-04-06T09:36:33;5.27;;;2.90;;
3349;SDS011;1688;51.000;13.684;2023-04-06T09:39:07;2.70;;;1.70;;
3349;SDS011;1688;51.000;13.684;2023-04-06T09:41:40;4.17;;;3.10;;
3349;SDS011;1688;51.000;13.684;2023-04-06T09:44:13;3.70;;;2.93;;
3349;SDS011;1688;51.000;13.684;2023-04-06T09:46:47;5.03;;;2.93;;
3349;SDS011;1688;51.000;13.684;2023-04-06T09:49:31;4.90;;;2.00;;
3349;SDS011;1688;51.000;13.684;2023-04-06T09:52:07;4.77;;;3.13;;
3349;SDS011;1688;51.000;13.684;2023-04-06T09:54:41;3.50;;;3.10;;
3349;SDS011;1688;51.000;13.684;2023-04-06T10:03:00;3.07;;;2.60;;
3349;SDS011;1688;51.000;13.684;2023-04-06T10:05:57;4.20;;;2.40;;
3349;SDS011;1688;51.000;13.684;2023-04-06T10:08:33;3.73;;;3.23;;
3349;SDS011;1688;51.000;13.684;2023-04-06T10:11:08;7.10;;;2.17;;
3349;SDS011;1688;51.000;13.684;2023-04-06T10:13:45;4.50;;;2.13;;
3349;SDS011;1688;51.000;13.684;2023-04-06T10:16:21;4.87;;;2.70;;
3349;SDS011;1688;51.000;13.684;2023-04-06T10:18:56;3.23;;;2.70;;
3349;SDS011;1688;51.000;13.684;2023-04-06T10:21:31;3.07;;;2.03;;
3349;SDS011;1688;51.000;13.684;2023-04-06T10:24:06;2.83;;;2.60;;
3349;SDS011;1688;51.000;13.684;2023-04-06T10:26:42;3.90;;;2.90;;
3349;SDS011;1688;51.000;13.684;2023-04-06T10:29:16;3.73;;;3.00;;
3349;SDS011;1688;51.000;13.684;2023-04-06T10:31:49;5.37;;;2.80;;
3349;SDS011;1688;51.000;13.684;2023-04-06T10:34:22;4.83;;;3.60;;
3349;SDS011;1688;51.000;13.684;2023-04-06T10:36:55;8.30;;;3.20;;
3349;SDS011;1688;51.000;13.684;2023-04-06T10:39:29;4.70;;;4.07;;
3349;SDS011;1688;51.000;13.684;2023-04-06T10:42:05;7.57;;;2.60;;
3349;SDS011;1688;51.000;13.684;2023-04-06T10:44:42;15.03;;;2.97;;
3349;SDS011;1688;51.000;13.684;2023-04-06T10:47:17;2.87;;;2.47;;
3349;SDS011;1688;51.000;13.684;2023-04-06T10:49:50;2.20;;;2.00;;
3349;SDS011;1688;51.000;13.684;2023-04-06T10:52:24;3.57;;;2.93;;
3349;SDS011;1688;51.000;13.684;2023-04-06T10:54:57;3.67;;;2.40;;
3349;SDS011;1688;51.000;13.684;2023-04-06T10:57:31;1.80;;;1.70;;
3349;SDS011;1688;51.000;13.684;2023-04-06T11:00:05;5.90;;;3.53;;
3349;SDS011;1688;51.000;13.684;2023-04-06T11:02:42;4.67;;;3.10;;
3349;SDS011;1688;51.000;13.684;2023-04-06T11:05:15;3.07;;;2.70;;
3349;SDS011;1688;51.000;13.684;2023-04-06T11:07:49;3.57;;;2.93;;
3349;SDS011;1688;51.000;13.684;2023-04-06T11:10:22;2.07;;;1.90;;
3349;SDS011;1688;51.000;13.684;2023-04-06T11:12:56;4.23;;;2.63;;
3349;SDS011;1688;51.000;13.684;2023-04-06T11:15:33;3.07;;;2.70;;
3349;SDS011;1688;51.000;13.684;2023-04-06T11:18:10;4.00;;;3.10;;
3349;SDS011;1688;51.000;13.684;2023-04-06T11:20:47;4.57;;;3.27;;
3349;SDS011;1688;51.000;13.684;2023-04-06T11:23:24;3.87;;;2.93;;
3349;SDS011;1688;51.000;13.684;2023-04-06T11:25:57;3.90;;;2.87;;
3349;SDS011;1688;51.000;13.684;2023-04-06T11:28:31;5.23;;;3.67;;
3349;SDS011;1688;51.000;13.684;2023-04-06T11:31:05;4.93;;;3.13;;
3349;SDS011;1688;51.000;13.684;2023-04-06T11:33:38;4.47;;;2.50;;
3349;SDS011;1688;51.000;13.684;2023-04-06T11:36:12;3.20;;;2.83;;
3349;SDS011;1688;51.000;13.684;2023-04-06T11:38:47;2.40;;;2.20;;
3349;SDS011;1688;51.000;13.684;2023-04-06T11:41:23;3.87;;;3.33;;
3349;SDS011;1688;51.000;13.684;2023-04-06T11:44:00;7.90;;;3.20;;
3349;SDS011;1688;51.000;13.684;2023-04-06T11:46:34;7.70;;;3.17;;
3349;SDS011;1688;51.000;13.684;2023-04-06T11:49:07;2.50;;;2.30;;
3349;SDS011;1688;51.000;13.684;2023-04-06T11:51:41;2.80;;;2.50;;
3349;SDS011;1688;51.000;13.684;2023-04-06T11:54:14;2.23;;;2.00;;
3349;SDS011;1688;51.000;13.684;2023-04-06T11:56:49;9.30;;;3.77;;
3349;SDS011;1688;51.000;13.684;2023-04-06T11:59:22;5.80;;;2.90;;
3349;SDS011;1688;51.000;13.684;2023-04-06T12:01:56;3.63;;;3.17;;
3349;SDS011;1688;51.000;13.684;2023-04-06T12:04:30;4.63;;;3.90;;
3349;SDS011;1688;51.000;13.684;2023-04-06T12:07:04;3.10;;;2.80;;
3349;SDS011;1688;51.000;13.684;2023-04-06T12:09:38;5.37;;;3.80;;
3349;SDS011;1688;51.000;13.684;2023-04-06T12:12:12;9.70;;;3.67;;
3349;SDS011;1688;51.000;13.684;2023-04-06T12:14:45;3.73;;;2.80;;
3349;SDS011;1688;51.000;13.684;2023-04-06T12:17:19;3.93;;;2.57;;
3349;SDS011;1688;51.000;13.684;2023-04-06T12:19:53;4.77;;;3.67;;
3349;SDS011;1688;51.000;13.684;2023-04-06T12:22:30;11.40;;;2.60;;
3349;SDS011;1688;51.000;13.684;2023-04-06T12:25:03;4.67;;;2.93;;
3349;SDS011;1688;51.000;13.684;2023-04-06T12:27:37;5.10;;;3.10;;
3349;SDS011;1688;51.000;13.684;2023-04-06T12:30:10;4.43;;;3.63;;
3349;SDS011;1688;51.000;13.684;2023-04-06T12:32:44;5.13;;;3.10;;
3349;SDS011;1688;51.000;13.684;2023-04-06T12:35:20;6.33;;;3.57;;
3349;SDS011;1688;51.000;13.684;2023-04-06T12:37:54;2.60;;;2.40;;
3349;SDS011;1688;51.000;13.684;2023-04-06T12:40:27;3.10;;;2.53;;
3349;SDS011;1688;51.000;13.684;2023-04-06T12:43:00;2.87;;;2.53;;
3349;SDS011;1688;51.000;13.684;2023-04-06T12:45:34;3.07;;;2.60;;
3349;SDS011;1688;51.000;13.684;2023-04-06T12:48:07;6.50;;;4.80;;
3349;SDS011;1688;51.000;13.684;2023-04-06T12:50:41;3.23;;;2.20;;
3349;SDS011;1688;51.000;13.684;2023-04-06T12:53:14;6.33;;;3.90;;
3349;SDS011;1688;51.000;13.684;2023-04-06T12:55:47;6.90;;;2.63;;
3349;SDS011;1688;51.000;13.684;2023-04-06T12:58:21;3.50;;;3.20;;
3349;SDS011;1688;51.000;13.684;2023-04-06T13:00:55;5.83;;;3.37;;
3349;SDS011;1688;51.000;13.684;2023-04-06T13:03:28;2.70;;;2.50;;
3349;SDS011;1688;51.000;13.684;2023-04-06T13:06:02;4.30;;;3.90;;
3349;SDS011;1688;51.000;13.684;2023-04-06T13:08:36;6.60;;;4.50;;
3349;SDS011;1688;51.000;13.684;2023-04-06T13:11:10;6.80;;;5.10;;
3349;SDS011;1688;51.000;13.684;2023-04-06T13:13:44;4.57;;;3.97;;
3349;SDS011;1688;51.000;13.684;2023-04-06T13:16:17;6.97;;;4.33;;
3349;SDS011;1688;51.000;13.684;2023-04-06T13:18:51;3.77;;;2.90;;
3349;SDS011;1688;51.000;13.684;2023-04-06T13:21:24;6.33;;;5.63;;
3349;SDS011;1688;51.000;13.684;2023-04-06T13:23:58;2.87;;;2.13;;
3349;SDS011;1688;51.000;13.684;2023-04-06T13:26:32;3.67;;;3.30;;
3349;SDS011;1688;51.000;13.684;2023-04-06T13:29:05;4.27;;;3.80;;
3349;SDS011;1688;51.000;13.684;2023-04-06T13:31:39;4.87;;;3.70;;
3349;SDS011;1688;51.000;13.684;2023-04-06T13:34:12;3.40;;;2.73;;
3349;SDS011;1688;51.000;13.684;2023-04-06T13:36:45;3.40;;;3.10;;
3349;SDS011;1688;51.000;13.684;2023-04-06T13:39:19;3.40;;;2.50;;
3349;SDS011;1688;51.000;13.684;2023-04-06T13:41:55;4.60;;;3.33;;
3349;SDS011;1688;51.000;13.684;2023-04-06T13:44:28;6.13;;;4.13;;
3349;SDS011;1688;51.000;13.684;2023-04-06T13:47:02;5.47;;;3.40;;
3349;SDS011;1688;51.000;13.684;2023-04-06T13:49:35;7.13;;;4.20;;
3349;SDS011;1688;51.000;13.684;2023-04-06T13:52:09;4.13;;;3.83;;
3349;SDS011;1688;51.000;13.684;2023-04-06T13:54:42;4.50;;;2.97;;
3349;SDS011;1688;51.000;13.684;2023-04-06T13:57:15;4.80;;;4.23;;
3349;SDS011;1688;51.000;13.684;2023-04-06T13:59:49;4.93;;;3.73;;
3349;SDS011;1688;51.000;13.684;2023-04-06T14:02:22;3.57;;;2.80;;
3349;SDS011;1688;51.000;13.684;2023-04-06T14:04:59;4.13;;;3.80;;
3349;SDS011;1688;51.000;13.684;2023-04-06T14:07:32;2.87;;;2.67;;
3349;SDS011;1688;51.000;13.684;2023-04-06T14:10:06;3.97;;;3.47;;
3349;SDS011;1688;51.000;13.684;2023-04-06T14:12:45;3.37;;;3.07;;
3349;SDS011;1688;51.000;13.684;2023-04-06T14:15:19;2.70;;;2.50;;
3349;SDS011;1688;51.000;13.684;2023-04-06T14:17:54;2.77;;;2.57;;
3349;SDS011;1688;51.000;13.684;2023-04-06T14:20:27;3.97;;;3.27;;
3349;SDS011;1688;51.000;13.684;2023-04-06T14:23:02;4.60;;;3.43;;
3349;SDS011;1688;51.000;13.684;2023-04-06T14:25:36;4.20;;;3.67;;
3349;SDS011;1688;51.000;13.684;2023-04-06T14:28:09;3.40;;;3.10;;
3349;SDS011;1688;51.000;13.684;2023-04-06T14:30:42;5.17;;;3.37;;
3349;SDS011;1688;51.000;13.684;2023-04-06T14:33:16;3.90;;;3.23;;
3349;SDS011;1688;51.000;13.684;2023-04-06T14:35:49;5.80;;;4.33;;
3349;SDS011;1688;51.000;13.684;2023-04-06T14:38:22;4.87;;;3.07;;
3349;SDS011;1688;51.000;13.684;2023-04-06T14:40:56;6.87;;;5.07;;
3349;SDS011;1688;51.000;13.684;2023-04-06T14:43:29;4.20;;;3.70;;
3349;SDS011;1688;51.000;13.684;2023-04-06T14:46:02;7.23;;;4.13;;
3349;SDS011;1688;51.000;13.684;2023-04-06T14:48:36;6.23;;;4.83;;
3349;SDS011;1688;51.000;13.684;2023-04-06T14:51:09;2.97;;;2.50;;
3349;SDS011;1688;51.000;13.684;2023-04-06T14:53:42;3.73;;;3.10;;
3349;SDS011;1688;51.000;13.684;2023-04-06T14:56:22;4.50;;;3.23;;
3349;SDS011;1688;51.000;13.684;2023-04-06T14:58:57;5.20;;;3.60;;
3349;SDS011;1688;51.000;13.684;2023-04-06T15:01:33;3.83;;;3.50;;
3349;SDS011;1688;51.000;13.684;2023-04-06T15:04:08;3.40;;;2.80;;
3349;SDS011;1688;51.000;13.684;2023-04-06T15:06:41;3.47;;;3.13;;
3349;SDS011;1688;51.000;13.684;2023-04-06T15:09:14;3.90;;;3.30;;
3349;SDS011;1688;51.000;13.684;2023-04-06T15:11:48;4.17;;;3.77;;
3349;SDS011;1688;51.000;13.684;2023-04-06T15:14:21;4.60;;;3.13;;
3349;SDS011;1688;51.000;13.684;2023-04-06T15:16:54;4.30;;;3.90;;
3349;SDS011;1688;51.000;13.684;2023-04-06T15:19:27;3.17;;;2.73;;
3349;SDS011;1688;51.000;13.684;2023-04-06T15:22:01;3.70;;;3.20;;
3349;SDS011;1688;51.000;13.684;2023-04-06T15:24:34;3.43;;;3.10;;
3349;SDS011;1688;51.000;13.684;2023-04-06T15:27:07;3.13;;;2.83;;
3349;SDS011;1688;51.000;13.684;2023-04-06T15:29:40;3.53;;;3.23;;
3349;SDS011;1688;51.000;13.684;2023-04-06T15:32:14;3.97;;;3.17;;
3349;SDS011;1688;51.000;13.684;2023-04-06T15:34:47;5.10;;;3.30;;
3349;SDS011;1688;51.000;13.684;2023-04-06T15:37:20;3.47;;;3.17;;
3349;SDS011;1688;51.000;13.684;2023-04-06T15:39:53;5.63;;;4.03;;
3349;SDS011;1688;51.000;13.684;2023-04-06T15:42:27;6.30;;;3.93;;
3349;SDS011;1688;51.000;13.684;2023-04-06T15:45:00;4.30;;;3.90;;